Time;durP1;ratioP1;P1;durP2;ratioP2;P2;SDS_P1;SDS_P2;PMS_P1;PMS_P2;Temp;Humidity;BMP_temperature;BMP_pressure;BME280_temperature;BME280_humidity;BME280_pressure;Samples;Min_cycle;Max_cycle;Signal;HPM_P1;HPM_P2
2021/11/25 00:01:16;;;;;;;17.60;11.85;;;;;;;5.67;87.13;100983.84;1679377;83;21024;-76
2021/11/25 00:03:42;;;;;;;18.90;11.60;;;;;;;5.67;87.18;100990.26;1678108;83;21057;-76
2021/11/25 00:06:08;;;;;;;16.85;11.75;;;;;;;5.70;87.19;100985.58;1675715;83;20969;-76
2021/11/25 00:08:35;;;;;;;18.73;11.80;;;;;;;5.70;87.21;100981.73;1698878;83;21049;-76
2021/11/25 00:11:01;;;;;;;18.85;13.32;;;;;;;5.69;87.20;100984.72;1674555;83;21093;-76
2021/11/25 00:13:27;;;;;;;19.20;12.80;;;;;;;5.71;87.25;100983.45;1695558;83;21394;-76
2021/11/25 00:15:54;;;;;;;20.20;13.80;;;;;;;5.70;87.22;100982.59;1683830;83;20981;-76
2021/11/25 00:18:20;;;;;;;22.62;13.90;;;;;;;5.71;87.23;100981.75;1679579;83;21032;-76
2021/11/25 00:20:48;;;;;;;19.65;12.93;;;;;;;5.70;87.22;100979.17;1676640;83;21584;-76
2021/11/25 00:23:15;;;;;;;25.00;14.30;;;;;;;5.70;87.25;100985.16;1683917;83;20909;-76
2021/11/25 00:25:41;;;;;;;22.42;13.75;;;;;;;5.72;87.29;100983.44;1679298;83;26656;-76
2021/11/25 00:28:10;;;;;;;25.82;15.40;;;;;;;5.73;87.24;100980.02;1688296;83;21135;-76
2021/11/25 00:30:36;;;;;;;21.93;14.25;;;;;;;5.72;87.24;100978.30;1691509;83;21037;-76
2021/11/25 00:33:03;;;;;;;23.20;13.45;;;;;;;5.72;87.23;100980.05;1685093;83;21011;-76
2021/11/25 00:35:30;;;;;;;22.67;14.95;;;;;;;5.73;87.25;100976.17;1678409;83;21076;-76
2021/11/25 00:37:57;;;;;;;22.05;14.90;;;;;;;5.75;87.27;100979.61;1685918;83;21008;-76
2021/11/25 00:40:23;;;;;;;21.42;14.28;;;;;;;5.74;87.22;100977.03;1675860;83;21529;-76
2021/11/25 00:42:50;;;;;;;23.98;14.98;;;;;;;5.75;87.26;100970.64;1677978;83;22139;-76
2021/11/25 00:45:18;;;;;;;22.37;13.95;;;;;;;5.74;87.20;100962.92;1676591;83;21013;-76
2021/11/25 00:47:46;;;;;;;23.10;14.50;;;;;;;5.74;87.16;100965.06;1682529;83;20984;-76
2021/11/25 00:50:16;;;;;;;22.48;14.30;;;;;;;5.73;87.15;100956.94;1688538;83;20965;-76
2021/11/25 00:52:43;;;;;;;20.00;13.60;;;;;;;5.73;87.14;100956.07;1695725;83;21062;-76
2021/11/25 00:55:10;;;;;;;21.60;14.23;;;;;;;5.72;87.14;100950.53;1693124;83;21093;-76
2021/11/25 00:57:36;;;;;;;21.37;14.07;;;;;;;5.72;87.12;100951.36;1698368;84;20955;-76
2021/11/25 01:00:08;;;;;;;20.57;14.65;;;;;;;5.71;87.12;100947.53;1690196;84;21652;-76
2021/11/25 01:02:34;;;;;;;18.50;13.50;;;;;;;5.72;87.12;100954.39;1674098;84;20968;-76
2021/11/25 01:05:01;;;;;;;21.20;13.90;;;;;;;5.70;87.07;100946.67;1668802;84;20912;-76
2021/11/25 01:07:27;;;;;;;18.07;13.00;;;;;;;5.70;87.06;100940.69;1668961;84;20988;-76
2021/11/25 01:09:53;;;;;;;21.85;13.35;;;;;;;5.69;87.07;100938.55;1681684;84;21399;-76
2021/11/25 01:12:20;;;;;;;23.85;13.58;;;;;;;5.69;87.08;100934.69;1690161;84;20914;-76
2021/11/25 01:14:46;;;;;;;18.00;12.70;;;;;;;5.67;87.01;100932.53;1680429;84;20871;-77
2021/11/25 01:17:12;;;;;;;22.67;13.62;;;;;;;5.64;86.99;100929.52;1676700;84;20911;-76
2021/11/25 01:19:40;;;;;;;16.73;12.13;;;;;;;5.65;86.98;100925.25;1678700;84;20948;-76
2021/11/25 01:22:06;;;;;;;19.15;11.83;;;;;;;5.63;86.97;100920.52;1694193;84;20910;-76
2021/11/25 01:24:32;;;;;;;15.00;10.78;;;;;;;5.62;86.95;100915.82;1698786;84;20946;-76
2021/11/25 01:26:59;;;;;;;18.77;11.75;;;;;;;5.61;86.92;100908.11;1678865;84;20955;-76
2021/11/25 01:29:25;;;;;;;13.38;10.28;;;;;;;5.61;86.90;100908.11;1693437;84;20942;-76
2021/11/25 01:31:51;;;;;;;15.05;11.12;;;;;;;5.59;86.89;100904.25;1701616;84;20950;-76
2021/11/25 01:34:17;;;;;;;14.15;10.80;;;;;;;5.59;86.88;100898.26;1669862;84;20938;-76
2021/11/25 01:36:44;;;;;;;14.65;10.50;;;;;;;5.57;86.85;100896.10;1674800;84;20940;-76
2021/11/25 01:39:10;;;;;;;14.15;8.98;;;;;;;5.56;86.82;100895.66;1679981;84;20905;-76
2021/11/25 01:41:38;;;;;;;13.72;9.40;;;;;;;5.54;86.76;100891.80;1678078;84;20954;-76
2021/11/25 01:44:05;;;;;;;13.65;9.20;;;;;;;5.52;86.71;100887.08;1701800;84;20910;-76
2021/11/25 01:46:32;;;;;;;13.78;8.50;;;;;;;5.52;86.70;100877.25;1673890;84;20966;-76
2021/11/25 01:48:58;;;;;;;10.50;8.35;;;;;;;5.50;86.71;100865.69;1693480;84;20969;-76
2021/11/25 01:51:24;;;;;;;11.88;8.13;;;;;;;5.50;86.65;100872.52;1674817;84;20884;-76
2021/11/25 01:53:51;;;;;;;12.03;9.35;;;;;;;5.48;86.65;100871.66;1688483;83;20907;-76
2021/11/25 01:56:19;;;;;;;11.43;8.90;;;;;;;5.47;86.61;100868.66;1684849;83;20921;-76
2021/11/25 01:58:47;;;;;;;12.53;9.90;;;;;;;5.46;86.61;100863.09;1681595;83;20949;-77
2021/11/25 02:01:18;;;;;;;13.50;9.23;;;;;;;5.43;86.58;100857.51;1673633;84;21049;-77
2021/11/25 02:03:47;;;;;;;13.55;9.10;;;;;;;5.42;86.54;100855.78;1675143;84;21079;-77
2021/11/25 02:06:16;;;;;;;13.43;10.03;;;;;;;5.42;86.55;100848.52;1675250;83;21462;-76
2021/11/25 02:08:44;;;;;;;14.68;9.68;;;;;;;5.40;86.55;100839.53;1685157;83;21121;-76
2021/11/25 02:11:13;;;;;;;12.60;8.78;;;;;;;5.38;86.52;100843.78;1701962;83;21059;-76
2021/11/25 02:13:39;;;;;;;10.70;8.65;;;;;;;5.36;86.51;100836.50;1681407;83;20985;-76
2021/11/25 02:16:05;;;;;;;16.07;10.50;;;;;;;5.36;86.49;100832.66;1692570;83;20985;-76
2021/11/25 02:18:32;;;;;;;11.33;9.38;;;;;;;5.35;86.45;100832.64;1691327;83;21079;-76
2021/11/25 02:21:01;;;;;;;12.88;10.08;;;;;;;5.35;86.44;100829.66;1682151;84;21430;-76
2021/11/25 02:23:29;;;;;;;13.45;9.63;;;;;;;5.33;86.42;100823.23;1700644;83;20977;-76
2021/11/25 02:25:57;;;;;;;11.85;9.55;;;;;;;5.31;86.44;100819.80;1696628;83;21060;-76
2021/11/25 02:28:29;;;;;;;11.70;8.93;;;;;;;5.33;86.48;100817.25;1655054;84;21098;-76
2021/11/25 02:30:55;;;;;;;12.37;9.83;;;;;;;5.33;86.47;100815.54;1674994;83;20996;-76
2021/11/25 02:33:22;;;;;;;14.95;10.70;;;;;;;5.33;86.42;100812.12;1686182;83;21000;-76
2021/11/25 02:35:49;;;;;;;14.93;10.88;;;;;;;5.33;86.39;100806.98;1683869;84;21506;-76
2021/11/25 02:38:15;;;;;;;;;;;;;;;5.31;86.35;100803.55;1693907;84;21715;-76
2021/11/25 02:40:49;;;;;;;11.88;9.10;;;;;;;5.29;86.20;100803.54;1689778;83;20196;-76
2021/11/25 02:43:20;;;;;;;15.53;11.38;;;;;;;5.28;86.31;100798.40;1677056;83;21047;-76
2021/11/25 02:45:53;;;;;;;15.28;11.38;;;;;;;5.27;86.29;100800.53;1676794;84;21076;-76
2021/11/25 02:48:33;;;;;;;14.87;11.08;;;;;;;5.25;86.25;100792.82;1694603;84;21124;-76
2021/11/25 02:51:01;;;;;;;18.00;11.83;;;;;;;5.25;86.27;100788.98;1675203;83;21081;-76
2021/11/25 02:53:31;;;;;;;14.68;11.63;;;;;;;5.23;86.23;100781.70;1684796;84;20946;-76
2021/11/25 02:56:01;;;;;;;12.20;10.43;;;;;;;5.22;86.21;100779.12;1680892;84;21900;-76
2021/11/25 02:58:28;;;;;;;14.98;11.70;;;;;;;5.20;86.18;100771.41;1691618;83;21390;-76
2021/11/25 03:00:57;;;;;;;;;;;;;;;5.18;86.18;100771.00;1680112;85;20922;-76
2021/11/25 03:03:24;;;;;;;17.82;12.18;;;;;;;5.15;86.06;100769.27;1678548;83;20139;-76
2021/11/25 03:05:52;;;;;;;15.38;12.45;;;;;;;5.14;86.15;100774.38;1677571;83;21522;-77
2021/11/25 03:08:21;;;;;;;16.80;13.15;;;;;;;5.13;86.17;100763.27;1677755;85;21716;-77
2021/11/25 03:11:01;;;;;;;15.63;12.33;;;;;;;5.11;86.17;100755.98;1678663;83;20929;-77
2021/11/25 03:13:29;;;;;;;18.25;12.75;;;;;;;5.11;86.15;100752.56;1677796;85;21451;-77
2021/11/25 03:15:56;;;;;;;17.00;12.25;;;;;;;5.10;86.10;100745.73;1677747;85;21757;-77
2021/11/25 03:18:22;;;;;;;14.68;11.85;;;;;;;5.08;86.08;100746.13;1678645;83;22632;-77
2021/11/25 03:20:53;;;;;;;15.45;11.38;;;;;;;5.05;86.03;100739.28;1676586;83;20974;-76
2021/11/25 03:23:23;;;;;;;18.32;12.10;;;;;;;5.03;86.03;100729.86;1679643;84;20938;-76
2021/11/25 03:25:51;;;;;;;14.00;11.33;;;;;;;5.01;86.01;100725.14;1679726;85;20879;-76
2021/11/25 03:28:18;;;;;;;13.53;10.63;;;;;;;4.98;85.96;100720.85;1658949;83;21836;-76
2021/11/25 03:30:52;;;;;;;14.87;11.25;;;;;;;4.95;85.95;100711.44;1673325;84;21285;-76
2021/11/25 03:33:14;;;;;;;13.88;10.70;;;;;;;4.95;85.95;100711.44;1669357;85;20898;-76
2021/11/25 03:35:40;;;;;;;15.50;11.80;;;;;;;4.91;85.93;100698.16;1691412;83;21403;-76
2021/11/25 03:38:12;;;;;;;13.65;11.63;;;;;;;4.91;85.94;100698.16;1693216;83;21021;-76
2021/11/25 03:40:39;;;;;;;14.45;11.55;;;;;;;4.89;85.88;100690.03;1678439;85;21061;-76
2021/11/25 03:43:05;;;;;;;16.55;12.33;;;;;;;4.86;85.88;100689.58;1676428;83;21092;-76
2021/11/25 03:45:31;;;;;;;14.73;11.55;;;;;;;4.85;85.87;100681.45;1677153;85;21076;-76
2021/11/25 03:47:58;;;;;;;15.68;12.40;;;;;;;4.84;85.92;100686.14;1675680;84;21503;-76
2021/11/25 03:50:30;;;;;;;18.23;14.30;;;;;;;4.83;85.83;100681.01;1679021;85;21096;-76
2021/11/25 03:52:56;;;;;;;18.98;14.38;;;;;;;4.80;85.84;100680.98;1700102;83;21513;-77
2021/11/25 03:55:23;;;;;;;17.25;13.22;;;;;;;4.78;85.84;100677.55;1676112;85;20957;-76
2021/11/25 03:57:51;;;;;;;17.23;13.13;;;;;;;4.76;85.82;100678.81;1672473;85;21518;-76
2021/11/25 04:00:21;;;;;;;19.55;14.47;;;;;;;4.76;85.85;100672.84;1667852;85;21471;-76
2021/11/25 04:02:51;;;;;;;17.60;14.20;;;;;;;4.74;85.84;100670.69;1657196;85;22221;-76
2021/11/25 04:05:19;;;;;;;18.75;14.30;;;;;;;4.72;85.82;100665.97;1666295;85;21505;-76
2021/11/25 04:07:46;;;;;;;17.52;13.55;;;;;;;4.69;85.80;100657.83;1656138;85;21553;-76
2021/11/25 04:10:14;;;;;;;17.73;14.28;;;;;;;4.68;85.81;100658.68;1647662;85;21573;-76
2021/11/25 04:12:41;;;;;;;17.87;13.75;;;;;;;4.68;85.82;100654.02;1658606;85;20938;-76
2021/11/25 04:15:08;;;;;;;18.07;14.90;;;;;;;4.64;85.80;100646.30;1649448;85;20931;-76
2021/11/25 04:17:35;;;;;;;16.40;13.38;;;;;;;4.63;85.79;100640.75;1665515;85;21386;-76
2021/11/25 04:20:01;;;;;;;20.70;14.45;;;;;;;4.63;85.77;100643.30;1630834;86;21470;-76
2021/11/25 04:22:27;;;;;;;18.85;14.70;;;;;;;4.62;85.76;100631.34;1648553;85;20951;-76
2021/11/25 04:24:56;;;;;;;20.32;15.00;;;;;;;4.61;85.69;100627.07;1652941;85;20978;-76
2021/11/25 04:27:26;;;;;;;21.57;14.90;;;;;;;4.59;85.67;100630.46;1663700;85;20962;-76
2021/11/25 04:30:08;;;;;;;19.35;15.15;;;;;;;4.57;85.69;100625.33;1650068;85;20982;-76
2021/11/25 04:38:13;;;;;;;18.77;15.15;;;;;;;4.54;85.63;100620.18;1664091;85;21112;-77
2021/11/25 04:40:47;;;;;;;21.75;15.80;;;;;;;4.54;85.63;100616.34;1646919;85;20942;-77
2021/11/25 04:43:18;;;;;;;20.20;15.63;;;;;;;4.53;85.60;100611.20;1654800;85;21220;-77
2021/11/25 04:45:47;;;;;;;22.62;15.48;;;;;;;4.53;85.61;100610.78;1652012;85;20911;-77
2021/11/25 04:48:16;;;;;;;19.50;15.43;;;;;;;4.52;85.56;100601.38;1625593;86;20894;-77
2021/11/25 04:50:42;;;;;;;22.98;16.30;;;;;;;4.50;85.56;100595.81;1648451;85;20982;-77
2021/11/25 04:53:11;;;;;;;21.20;15.13;;;;;;;4.50;85.53;100590.27;1648360;85;20970;-77
2021/11/25 04:55:39;;;;;;;20.68;15.58;;;;;;;4.48;85.48;100588.55;1664164;83;20959;-77
2021/11/25 04:58:05;;;;;;;19.80;15.75;;;;;;;4.48;85.50;100592.38;1687718;83;20938;-76
2021/11/25 05:00:32;;;;;;;22.58;15.30;;;;;;;4.47;85.49;100586.83;1694737;83;20954;-76
2021/11/25 05:02:59;;;;;;;21.27;16.23;;;;;;;4.44;85.46;100578.70;1705664;83;20911;-76
2021/11/25 05:05:25;;;;;;;22.52;15.75;;;;;;;4.44;85.47;100577.84;1671378;83;20967;-76
2021/11/25 05:07:52;;;;;;;23.00;16.57;;;;;;;4.42;85.43;100571.84;1690960;83;20916;-76
2021/11/25 05:10:18;;;;;;;19.87;15.03;;;;;;;4.40;85.41;100570.55;1685624;83;20918;-76
2021/11/25 05:12:44;;;;;;;23.07;17.23;;;;;;;4.38;85.40;100572.67;1697743;83;20963;-76
2021/11/25 05:15:14;;;;;;;25.57;17.50;;;;;;;4.36;85.40;100564.98;1689904;83;20908;-76
2021/11/25 05:17:41;;;;;;;21.42;15.60;;;;;;;4.35;85.39;100567.10;1721445;83;21327;-76
2021/11/25 05:20:10;;;;;;;;;;;;;;;4.33;85.36;100565.80;1714484;83;21129;-76
2021/11/25 05:22:38;;;;;;;22.98;16.23;;;;;;;4.33;85.23;100564.95;1690118;83;20170;-76
2021/11/25 05:25:06;;;;;;;24.32;17.07;;;;;;;4.32;85.33;100555.55;1701974;83;20874;-76
2021/11/25 05:27:32;;;;;;;22.02;15.75;;;;;;;4.30;85.31;100554.69;1706797;82;21388;-76
2021/11/25 05:29:58;;;;;;;27.02;17.12;;;;;;;4.28;85.30;100561.07;1685559;83;20922;-76
2021/11/25 05:32:25;;;;;;;20.43;15.88;;;;;;;4.26;85.26;100553.80;1688665;83;20986;-76
2021/11/25 05:34:51;;;;;;;22.32;15.63;;;;;;;4.25;85.25;100553.79;1701324;83;20902;-76
2021/11/25 05:37:32;;;;;;;22.77;16.35;;;;;;;4.23;85.26;100549.08;1701010;83;20959;-76
2021/11/25 05:39:58;;;;;;;22.42;16.07;;;;;;;4.21;85.23;100539.25;1686856;83;20975;-76
2021/11/25 05:42:25;;;;;;;24.10;16.10;;;;;;;4.18;85.19;100536.66;1692145;83;21295;-76
2021/11/25 05:44:51;;;;;;;21.68;15.63;;;;;;;4.14;85.11;100530.69;1673860;83;20919;-77
2021/11/25 05:47:19;;;;;;;23.80;16.55;;;;;;;4.09;85.12;100527.23;1687435;83;20884;-76
2021/11/25 05:49:45;;;;;;;25.92;17.07;;;;;;;4.05;85.09;100516.96;1710769;83;20935;-76
2021/11/25 05:52:12;;;;;;;21.40;16.30;;;;;;;4.03;85.08;100521.20;1703596;83;20918;-76
2021/11/25 05:54:38;;;;;;;23.45;17.40;;;;;;;3.99;85.08;100512.22;1690632;83;21087;-77
2021/11/25 05:57:05;;;;;;;23.05;16.82;;;;;;;3.95;85.08;100511.76;1678805;82;21112;-76
2021/11/25 05:59:32;;;;;;;27.35;18.50;;;;;;;3.92;85.04;100516.84;1651796;85;21004;-76
2021/11/25 06:02:01;;;;;;;24.90;17.32;;;;;;;3.88;85.01;100512.55;1667856;85;20935;-76
2021/11/25 06:04:26;;;;;;;23.85;17.50;;;;;;;3.85;85.02;100509.95;1644253;85;21073;-76
2021/11/25 06:06:52;;;;;;;24.32;17.35;;;;;;;3.81;85.01;100504.80;1666908;85;21069;-76
2021/11/25 06:09:19;;;;;;;23.45;17.80;;;;;;;3.75;84.97;100502.17;1654057;85;21144;-76
2021/11/25 06:11:59;;;;;;;25.75;16.73;;;;;;;3.69;84.91;100500.42;1648798;85;21112;-76
2021/11/25 06:14:26;;;;;;;27.52;18.62;;;;;;;3.61;84.84;100503.34;1653053;85;21128;-76
2021/11/25 06:16:52;;;;;;;26.45;18.17;;;;;;;3.55;84.87;100506.70;1649458;85;21136;-76
2021/11/25 06:19:18;;;;;;;26.12;18.48;;;;;;;3.45;84.79;100498.91;1651180;85;21105;-76
2021/11/25 06:21:45;;;;;;;27.15;17.95;;;;;;;3.37;84.80;100497.97;1667674;85;21089;-76
2021/11/25 06:24:19;;;;;;;27.70;17.92;;;;;;;3.26;84.74;100502.53;1653080;85;21052;-76
2021/11/25 06:26:49;;;;;;;28.80;18.67;;;;;;;3.17;84.75;100498.59;1667425;85;21053;-76
2021/11/25 06:29:15;;;;;;;27.62;18.40;;;;;;;3.10;84.81;100498.11;1648723;85;20918;-76
2021/11/25 06:31:41;;;;;;;27.98;18.73;;;;;;;3.03;84.78;100501.42;1663619;85;27454;-76
2021/11/25 06:34:08;;;;;;;26.75;18.05;;;;;;;2.97;84.81;100506.45;1662619;85;20908;-77
2021/11/25 06:36:39;;;;;;;28.05;19.27;;;;;;;2.93;84.84;100506.83;1665016;85;20919;-77
2021/11/25 06:39:07;;;;;;;27.37;19.25;;;;;;;2.88;84.84;100504.63;1667599;85;20870;-77
2021/11/25 06:41:33;;;;;;;30.65;19.40;;;;;;;2.85;84.83;100502.45;1665868;85;20969;-76
2021/11/25 06:44:00;;;;;;;30.32;18.82;;;;;;;2.80;84.81;100499.84;1655952;85;20926;-76
2021/11/25 06:46:26;;;;;;;31.55;19.00;;;;;;;2.78;84.80;100496.83;1655388;85;20890;-76
2021/11/25 06:48:53;;;;;;;27.82;18.62;;;;;;;2.74;84.81;100497.20;1622509;86;26879;-76
2021/11/25 06:51:19;;;;;;;32.42;18.60;;;;;;;2.74;84.89;100498.48;1614722;87;20942;-75
2021/11/25 06:53:46;;;;;;;31.65;20.92;;;;;;;2.73;84.87;100493.35;1655169;84;21084;-75
2021/11/25 06:56:13;;;;;;;26.95;18.40;;;;;;;2.71;84.86;100490.77;1668854;84;21076;-76
2021/11/25 06:58:39;;;;;;;28.07;18.52;;;;;;;2.72;84.87;100485.25;1690652;82;21150;-76
2021/11/25 07:01:07;;;;;;;35.30;20.20;;;;;;;2.73;84.83;100488.24;1711754;82;26143;-76
2021/11/25 07:03:35;;;;;;;30.70;20.05;;;;;;;2.72;84.84;100488.66;1699466;82;21072;-76
2021/11/25 07:06:03;;;;;;;28.98;20.05;;;;;;;2.73;84.85;100487.83;1701174;82;20953;-76
2021/11/25 07:08:30;;;;;;;31.35;20.15;;;;;;;2.75;84.88;100487.43;1699058;82;20888;-76
2021/11/25 07:10:58;;;;;;;29.30;20.23;;;;;;;2.79;84.88;100494.71;1702445;82;20976;-76
2021/11/25 07:13:25;;;;;;;33.48;20.60;;;;;;;2.81;84.82;100487.93;1714939;82;20924;-76
2021/11/25 07:15:52;;;;;;;28.77;19.42;;;;;;;2.84;84.85;100490.52;1670148;84;20921;-76
2021/11/25 07:18:18;;;;;;;28.90;19.45;;;;;;;2.89;84.87;100488.47;1679198;84;20956;-76
2021/11/25 07:20:45;;;;;;;31.55;19.32;;;;;;;2.92;84.78;100482.13;1691209;84;20931;-76
2021/11/25 07:23:12;;;;;;;30.17;20.97;;;;;;;2.96;84.77;100475.36;1705408;82;20873;-76
2021/11/25 07:25:38;;;;;;;28.38;19.27;;;;;;;2.98;84.76;100472.41;1702062;82;20877;-76
2021/11/25 07:28:05;;;;;;;30.43;19.90;;;;;;;3.00;84.70;100475.84;1701673;82;25085;-76
2021/11/25 07:30:31;;;;;;;30.70;20.52;;;;;;;2.99;84.66;100472.84;1671112;84;20892;-76
2021/11/25 07:32:58;;;;;;;32.38;19.57;;;;;;;3.01;84.66;100470.31;1705540;82;20909;-76
2021/11/25 07:35:25;;;;;;;;;;;;;;;3.01;84.67;100462.66;1706664;82;20909;-76
2021/11/25 07:37:54;;;;;;;29.50;19.87;;;;;;;3.02;84.60;100461.81;1714196;82;20091;-76
2021/11/25 07:40:23;;;;;;;30.80;20.55;;;;;;;3.02;84.65;100461.39;1715707;82;20873;-76
2021/11/25 07:42:52;;;;;;;34.23;21.52;;;;;;;3.03;84.67;100455.45;1704316;82;20877;-76
2021/11/25 07:45:25;;;;;;;31.10;21.15;;;;;;;3.05;84.66;100451.22;1714347;82;21402;-76
2021/11/25 07:47:52;;;;;;;30.68;20.72;;;;;;;3.05;84.61;100442.27;1705682;82;20881;-76
2021/11/25 07:50:19;;;;;;;30.00;20.35;;;;;;;3.06;84.59;100436.33;1702884;82;20940;-77
2021/11/25 07:52:45;;;;;;;;;;;;;;;3.04;84.59;100438.00;1699299;82;20894;-77
2021/11/25 07:55:14;;;;;;;30.75;20.10;;;;;;;3.04;84.48;100432.89;1702185;82;26442;-77
2021/11/25 07:57:42;;;;;;;33.70;20.88;;;;;;;3.02;84.50;100424.78;1673066;82;21407;-77
2021/11/25 08:00:14;;;;;;;32.03;20.55;;;;;;;3.01;84.56;100434.55;1671581;83;20927;-77
2021/11/25 08:02:42;;;;;;;34.30;21.60;;;;;;;3.01;84.56;100426.89;1669797;83;21546;-77
2021/11/25 08:05:10;;;;;;;34.92;22.22;;;;;;;3.02;84.59;100428.19;1665469;83;20974;-77
2021/11/25 08:07:39;;;;;;;36.73;22.82;;;;;;;3.01;84.55;100423.06;1662187;83;20955;-77
2021/11/25 08:10:07;;;;;;;34.23;22.32;;;;;;;2.99;84.56;100413.69;1614851;86;21394;-77
2021/11/25 08:12:34;;;;;;;37.05;23.38;;;;;;;2.98;84.54;100413.25;1636785;86;21351;-76
2021/11/25 08:15:00;;;;;;;;;;;;;;;2.98;84.51;100411.97;1589615;88;21099;-76
2021/11/25 08:17:26;;;;;;;36.17;22.30;;;;;;;2.97;84.43;100406.84;1613008;86;20780;-76
2021/11/25 08:19:53;;;;;;;39.48;24.10;;;;;;;2.95;84.45;100402.14;1615801;86;21090;-76
2021/11/25 08:22:19;;;;;;;39.78;24.40;;;;;;;2.92;84.48;100395.30;1618737;86;21061;-76
2021/11/25 08:24:45;;;;;;;35.73;23.47;;;;;;;2.92;84.47;100394.44;1622834;86;20978;-71
2021/11/25 08:27:13;;;;;;;41.68;24.40;;;;;;;2.90;84.43;100389.73;1671625;84;21456;-71
2021/11/25 08:29:41;;;;;;;35.48;23.45;;;;;;;2.87;84.42;100389.28;1674253;84;21097;-71
2021/11/25 08:32:08;;;;;;;38.85;24.47;;;;;;;2.87;84.49;100390.98;1671510;84;21109;-71
2021/11/25 08:34:36;;;;;;;36.93;23.42;;;;;;;2.84;84.44;100391.80;1671683;84;21531;-70
2021/11/25 08:37:03;;;;;;;39.60;24.02;;;;;;;2.81;84.43;100382.83;1674064;84;20959;-70
2021/11/25 08:39:29;;;;;;;37.45;23.80;;;;;;;2.80;84.48;100377.28;1692253;84;21565;-70
2021/11/25 08:41:55;;;;;;;38.50;23.27;;;;;;;2.79;84.47;100373.44;1672194;84;21429;-74
2021/11/25 08:44:22;;;;;;;33.80;23.30;;;;;;;2.79;84.50;100370.88;1663191;84;20988;-76
2021/11/25 08:46:49;;;;;;;39.23;23.35;;;;;;;2.79;84.48;100369.61;1662802;84;21512;-76
2021/11/25 08:49:16;;;;;;;37.90;24.12;;;;;;;2.80;84.52;100368.34;1663644;84;20928;-78
2021/11/25 08:51:42;;;;;;;39.63;23.80;;;;;;;2.81;84.46;100369.20;1665012;84;21397;-72
2021/11/25 08:54:11;;;;;;;36.28;23.35;;;;;;;2.80;84.46;100368.34;1663715;84;21403;-74
2021/11/25 08:56:37;;;;;;;44.83;25.35;;;;;;;2.82;84.47;100363.26;1663646;84;20926;-72
2021/11/25 08:59:03;;;;;;;38.13;24.47;;;;;;;2.83;84.41;100364.97;1674348;83;20953;-77
2021/11/25 09:01:32;;;;;;;36.10;22.93;;;;;;;2.82;84.38;100363.26;1672256;83;20909;-77
2021/11/25 09:03:58;;;;;;;42.27;23.62;;;;;;;2.82;84.42;100356.88;1677573;83;20909;-77
2021/11/25 09:06:28;;;;;;;44.30;25.32;;;;;;;2.84;84.43;100350.09;1681420;85;20921;-71
2021/11/25 09:08:54;;;;;;;43.08;25.45;;;;;;;2.86;84.43;100341.61;1681240;85;20978;-71
2021/11/25 09:11:20;;;;;;;39.45;24.67;;;;;;;2.90;84.50;100342.50;1681914;84;21059;-71
2021/11/25 09:13:49;;;;;;;37.80;23.77;;;;;;;2.95;84.48;100336.59;1676343;83;20941;-72
2021/11/25 09:16:17;;;;;;;38.85;23.85;;;;;;;2.99;84.43;100326.84;1678866;84;20938;-77
2021/11/25 09:18:45;;;;;;;39.15;24.63;;;;;;;3.02;84.43;100319.64;1682408;82;20909;-79
2021/11/25 09:21:11;;;;;;;43.87;25.65;;;;;;;3.06;84.40;100317.55;1677476;83;21045;-79
2021/11/25 09:23:38;;;;;;;44.38;24.60;;;;;;;3.07;84.33;100317.98;1671630;83;20869;-80
2021/11/25 09:26:06;;;;;;;42.73;25.65;;;;;;;3.11;84.35;100317.17;1680926;83;20925;-81
2021/11/25 09:28:34;;;;;;;41.30;26.57;;;;;;;3.15;84.34;100316.75;1680558;85;20890;-80
2021/11/25 09:31:00;;;;;;;40.92;25.77;;;;;;;3.17;84.31;100306.13;1675734;82;21500;-79
2021/11/25 09:33:27;;;;;;;38.15;24.40;;;;;;;3.16;84.26;100310.38;1686990;82;20942;-79
2021/11/25 09:35:54;;;;;;;40.78;25.95;;;;;;;3.17;84.25;100312.09;1674861;83;21367;-78
2021/11/25 09:38:20;;;;;;;;;;;;;;;3.16;84.14;100306.97;1682146;83;20988;-71
2021/11/25 09:40:48;;;;;;;;;;;;;;;3.15;84.15;100306.53;1686910;83;20181;-72
2021/11/25 09:43:21;;;;;;;40.92;25.00;;;;;;;3.14;84.09;100294.60;1678207;83;20263;-71
2021/11/25 09:45:50;;;;;;;38.92;23.90;;;;;;;3.13;84.16;100292.89;1671336;83;20953;-71
2021/11/25 09:48:21;;;;;;;39.10;25.10;;;;;;;3.16;84.25;100296.33;1679006;83;20932;-71
2021/11/25 09:50:52;;;;;;;47.27;24.77;;;;;;;3.19;84.24;100295.08;1671977;85;21103;-71
2021/11/25 09:53:22;;;;;;;38.50;25.45;;;;;;;3.21;84.19;100284.87;1679610;83;20924;-71
2021/11/25 09:55:51;;;;;;;37.42;23.87;;;;;;;3.22;84.16;100279.77;1683606;83;21395;-77
2021/11/25 09:58:21;;;;;;;41.00;23.60;;;;;;;3.27;84.25;100279.39;1674696;83;20916;-77
2021/11/25 10:00:52;;;;;;;35.40;23.80;;;;;;;3.31;84.28;100270.91;1650452;84;20899;-76
2021/11/25 10:03:19;;;;;;;39.10;24.70;;;;;;;3.36;84.22;100262.00;1664185;84;20987;-76
2021/11/25 10:05:56;;;;;;;42.53;25.77;;;;;;;3.38;84.12;100256.48;1669836;84;21305;-77
2021/11/25 10:08:35;;;;;;;40.75;25.40;;;;;;;3.41;84.11;100251.81;1671783;84;20966;-77
2021/11/25 10:11:14;;;;;;;37.73;23.45;;;;;;;3.41;84.10;100242.45;1610936;87;20906;-77
2021/11/25 10:13:55;;;;;;;42.88;25.23;;;;;;;3.45;84.17;100237.79;1605439;88;21065;-77
2021/11/25 10:16:38;;;;;;;39.13;25.52;;;;;;;3.51;84.24;100239.53;1634935;86;20911;-77
2021/11/25 10:19:18;;;;;;;42.55;25.17;;;;;;;3.55;84.16;100244.67;1607561;88;20974;-77
2021/11/25 10:21:52;;;;;;;38.08;24.70;;;;;;;3.56;84.13;100234.03;1624080;86;20936;-77
2021/11/25 10:24:16;;;;;;;36.28;23.90;;;;;;;3.59;84.13;100234.05;1629529;86;20965;-77
2021/11/25 10:26:43;;;;;;;37.15;24.90;;;;;;;3.62;84.11;100236.20;1594883;86;21017;-76
2021/11/25 10:29:11;;;;;;;39.65;24.85;;;;;;;3.64;84.14;100225.52;1612702;85;21105;-76
2021/11/25 10:31:44;;;;;;;39.60;25.52;;;;;;;3.68;84.09;100225.12;1607858;86;21083;-76
2021/11/25 10:34:19;;;;;;;44.00;27.87;;;;;;;3.72;84.11;100223.02;1607862;86;21074;-76
2021/11/25 10:37:04;;;;;;;39.42;26.70;;;;;;;3.77;84.08;100223.89;1606071;86;21395;-76
2021/11/25 10:39:47;;;;;;;40.83;27.13;;;;;;;3.76;84.05;100213.23;1615605;86;20913;-76
2021/11/25 10:42:07;;;;;;;43.10;27.48;;;;;;;3.76;83.96;100214.94;1610387;86;21431;-76
2021/11/25 10:44:39;;;;;;;46.65;28.65;;;;;;;3.71;83.94;100219.17;1605755;86;21551;-76
2021/11/25 10:47:18;;;;;;;48.45;27.98;;;;;;;3.70;83.96;100220.02;1612395;86;20998;-76
2021/11/25 10:50:00;;;;;;;42.85;29.05;;;;;;;3.65;83.93;100213.17;1609242;86;21000;-76
2021/11/25 10:52:37;;;;;;;44.20;27.90;;;;;;;3.66;84.00;100203.37;1609462;86;21321;-76
2021/11/25 10:55:13;;;;;;;46.55;28.32;;;;;;;3.66;84.04;100196.13;1616549;86;20913;-76
2021/11/25 10:57:46;;;;;;;44.83;27.90;;;;;;;3.71;84.06;100202.55;1610966;86;20958;-77
2021/11/25 11:00:24;;;;;;;45.90;28.07;;;;;;;3.72;84.09;100204.26;1607180;86;21407;-76
2021/11/25 11:03:10;;;;;;;41.13;27.32;;;;;;;3.72;84.04;100198.72;1610478;86;21005;-76
2021/11/25 11:05:59;;;;;;;47.30;28.32;;;;;;;3.73;84.02;100186.80;1615609;86;20963;-76
2021/11/25 11:08:30;;;;;;;40.80;26.40;;;;;;;3.72;83.96;100183.38;1616158;86;20922;-75
2021/11/25 11:11:06;;;;;;;46.98;27.95;;;;;;;3.75;84.06;100182.54;1619950;86;20984;-76
2021/11/25 11:13:40;;;;;;;42.95;28.07;;;;;;;3.75;83.95;100174.88;1625095;86;20979;-76
2021/11/25 11:16:25;;;;;;;46.68;28.15;;;;;;;3.73;83.97;100171.03;1620240;86;20979;-76
2021/11/25 11:19:07;;;;;;;48.10;29.63;;;;;;;3.73;83.96;100169.75;1621952;86;20952;-75
2021/11/25 11:21:34;;;;;;;40.67;26.42;;;;;;;3.74;83.95;100168.91;1612662;86;20935;-76
2021/11/25 11:24:08;;;;;;;45.40;28.27;;;;;;;3.74;83.94;100170.60;1620945;86;21451;-76
2021/11/25 11:26:53;;;;;;;41.53;27.70;;;;;;;3.72;83.91;100174.44;1622902;86;21407;-76
2021/11/25 11:29:24;;;;;;;44.90;29.10;;;;;;;3.68;83.83;100176.97;1624218;86;20911;-72
2021/11/25 11:31:56;;;;;;;43.15;26.85;;;;;;;3.67;83.83;100173.55;1608820;86;21931;-72